sensor_id;sensor_type;location;lat;lon;timestamp;pressure;altitude;pressure_sealevel;temperature;humidity
75425;BME280;64007;50.632;13.700;2023-03-23T00:02:30;97342.25;;;10.52;72.04
75425;BME280;64007;50.632;13.700;2023-03-23T00:05:07;97331.75;;;10.41;75.29
75425;BME280;64007;50.632;13.700;2023-03-23T00:07:33;97340.41;;;10.33;73.45
75425;BME280;64007;50.632;13.700;2023-03-23T00:09:59;97330.47;;;10.26;85.61
75425;BME280;64007;50.632;13.700;2023-03-23T00:12:30;97338.72;;;10.23;87.16
75425;BME280;64007;50.632;13.700;2023-03-23T00:15:02;97345.03;;;10.22;91.67
75425;BME280;64007;50.632;13.700;2023-03-23T00:17:29;97342.38;;;10.22;100.00
75425;BME280;64007;50.632;13.700;2023-03-23T00:19:55;97341.09;;;10.26;100.00
75425;BME280;64007;50.632;13.700;2023-03-23T00:22:21;97334.41;;;10.22;100.00
75425;BME280;64007;50.632;13.700;2023-03-23T00:24:51;97334.63;;;10.19;97.80
75425;BME280;64007;50.632;13.700;2023-03-23T00:27:17;97331.28;;;10.17;100.00
75425;BME280;64007;50.632;13.700;2023-03-23T00:29:43;97328.63;;;10.17;100.00
75425;BME280;64007;50.632;13.700;2023-03-23T00:32:11;97326.94;;;10.16;100.00
75425;BME280;64007;50.632;13.700;2023-03-23T00:34:40;97325.00;;;10.18;100.00
75425;BME280;64007;50.632;13.700;2023-03-23T00:37:08;97315.63;;;10.14;100.00
75425;BME280;64007;50.632;13.700;2023-03-23T00:39:39;97305.69;;;10.16;100.00
75425;BME280;64007;50.632;13.700;2023-03-23T00:42:14;97303.31;;;10.13;100.00
75425;BME280;64007;50.632;13.700;2023-03-23T00:44:40;97305.28;;;10.11;100.00
75425;BME280;64007;50.632;13.700;2023-03-23T00:47:06;97299.97;;;10.11;100.00
75425;BME280;64007;50.632;13.700;2023-03-23T00:49:34;97313.38;;;10.09;100.00
75425;BME280;64007;50.632;13.700;2023-03-23T00:52:00;97311.41;;;10.01;100.00
75425;BME280;64007;50.632;13.700;2023-03-23T00:54:27;97310.59;;;10.01;100.00
75425;BME280;64007;50.632;13.700;2023-03-23T00:56:54;97310.69;;;9.99;100.00
75425;BME280;64007;50.632;13.700;2023-03-23T00:59:20;97304.28;;;10.02;100.00
75425;BME280;64007;50.632;13.700;2023-03-23T01:01:46;97297.41;;;9.99;100.00
75425;BME280;64007;50.632;13.700;2023-03-23T01:04:13;97300.19;;;9.98;100.00
75425;BME280;64007;50.632;13.700;2023-03-23T01:06:42;97297.41;;;9.99;100.00
75425;BME280;64007;50.632;13.700;2023-03-23T01:09:10;97299.91;;;9.91;100.00
75425;BME280;64007;50.632;13.700;2023-03-23T01:11:41;97297.97;;;9.93;100.00
75425;BME280;64007;50.632;13.700;2023-03-23T01:14:08;97294.88;;;9.88;100.00
75425;BME280;64007;50.632;13.700;2023-03-23T01:16:33;97284.53;;;9.85;98.10
75425;BME280;64007;50.632;13.700;2023-03-23T01:18:59;97281.03;;;9.85;97.01
75425;BME280;64007;50.632;13.700;2023-03-23T01:21:25;97286.22;;;9.86;96.13
75425;BME280;64007;50.632;13.700;2023-03-23T01:23:50;97280.91;;;9.86;95.20
75425;BME280;64007;50.632;13.700;2023-03-23T01:26:19;97279.78;;;9.89;99.71
75425;BME280;64007;50.632;13.700;2023-03-23T01:28:46;97270.84;;;9.90;100.00
75425;BME280;64007;50.632;13.700;2023-03-23T01:31:14;97268.34;;;9.88;95.46
75425;BME280;64007;50.632;13.700;2023-03-23T01:33:41;97271.69;;;9.90;97.64
75425;BME280;64007;50.632;13.700;2023-03-23T01:36:11;97261.34;;;9.87;96.15
75425;BME280;64007;50.632;13.700;2023-03-23T01:38:37;97259.53;;;9.88;96.36
75425;BME280;64007;50.632;13.700;2023-03-23T01:41:03;97264.69;;;9.89;96.22
75425;BME280;64007;50.632;13.700;2023-03-23T01:43:30;97255.19;;;9.87;98.87
75425;BME280;64007;50.632;13.700;2023-03-23T01:45:56;97252.41;;;9.88;98.86
75425;BME280;64007;50.632;13.700;2023-03-23T01:51:03;97245.84;;;9.83;91.63
75425;BME280;64007;50.632;13.700;2023-03-23T01:53:36;97242.63;;;9.79;91.03
75425;BME280;64007;50.632;13.700;2023-03-23T01:56:03;97238.28;;;9.78;87.95
75425;BME280;64007;50.632;13.700;2023-03-23T01:58:32;97243.44;;;9.80;87.41
75425;BME280;64007;50.632;13.700;2023-03-23T02:01:03;97245.41;;;9.78;88.78
75425;BME280;64007;50.632;13.700;2023-03-23T02:03:30;97258.81;;;9.76;89.34
75425;BME280;64007;50.632;13.700;2023-03-23T02:05:57;97245.81;;;9.73;92.30
75425;BME280;64007;50.632;13.700;2023-03-23T02:08:30;97238.84;;;9.72;92.72
75425;BME280;64007;50.632;13.700;2023-03-23T02:10:58;97236.47;;;9.69;96.52
75425;BME280;64007;50.632;13.700;2023-03-23T02:13:24;97234.78;;;9.68;98.83
75425;BME280;64007;50.632;13.700;2023-03-23T02:16:04;97241.47;;;9.62;100.00
75425;BME280;64007;50.632;13.700;2023-03-23T02:18:37;97252.09;;;9.62;98.99
75425;BME280;64007;50.632;13.700;2023-03-23T02:27:06;97243.03;;;9.74;100.00
75425;BME280;64007;50.632;13.700;2023-03-23T02:34:49;97238.66;;;9.54;99.83
75425;BME280;64007;50.632;13.700;2023-03-23T02:37:34;97231.00;;;9.70;100.00
75425;BME280;64007;50.632;13.700;2023-03-23T02:40:10;97227.38;;;9.62;98.42
75425;BME280;64007;50.632;13.700;2023-03-23T02:42:39;97213.66;;;9.57;100.00
75425;BME280;64007;50.632;13.700;2023-03-23T02:45:09;97220.22;;;9.53;100.00
75425;BME280;64007;50.632;13.700;2023-03-23T02:47:37;97220.47;;;9.50;100.00
75425;BME280;64007;50.632;13.700;2023-03-23T02:50:11;97217.97;;;9.48;100.00
75425;BME280;64007;50.632;13.700;2023-03-23T02:52:40;97226.78;;;9.49;100.00
75425;BME280;64007;50.632;13.700;2023-03-23T02:55:08;97229.00;;;9.43;100.00
75425;BME280;64007;50.632;13.700;2023-03-23T02:57:38;97224.94;;;9.39;100.00
75425;BME280;64007;50.632;13.700;2023-03-23T03:00:07;97224.94;;;9.39;100.00
75425;BME280;64007;50.632;13.700;2023-03-23T03:02:38;97221.59;;;9.37;100.00
75425;BME280;64007;50.632;13.700;2023-03-23T03:07:40;97221.47;;;9.49;100.00
75425;BME280;64007;50.632;13.700;2023-03-23T03:11:15;97221.84;;;9.34;100.00
75425;BME280;64007;50.632;13.700;2023-03-23T03:16:24;97210.25;;;9.26;100.00
75425;BME280;64007;50.632;13.700;2023-03-23T03:21:28;97212.34;;;9.22;100.00
75425;BME280;64007;50.632;13.700;2023-03-23T03:23:56;97210.66;;;9.21;100.00
75425;BME280;64007;50.632;13.700;2023-03-23T03:26:28;97212.47;;;9.21;100.00
75425;BME280;64007;50.632;13.700;2023-03-23T03:28:54;97209.94;;;9.19;100.00
75425;BME280;64007;50.632;13.700;2023-03-23T03:31:30;97213.75;;;9.26;100.00
75425;BME280;64007;50.632;13.700;2023-03-23T03:33:57;97215.91;;;9.11;100.00
75425;BME280;64007;50.632;13.700;2023-03-23T03:36:32;97218.25;;;9.05;100.00
75425;BME280;64007;50.632;13.700;2023-03-23T03:39:05;97224.81;;;9.01;100.00
75425;BME280;64007;50.632;13.700;2023-03-23T03:41:34;97212.78;;;8.97;100.00
75425;BME280;64007;50.632;13.700;2023-03-23T03:44:00;97212.09;;;8.95;100.00
75425;BME280;64007;50.632;13.700;2023-03-23T03:46:26;97215.84;;;8.92;100.00
75425;BME280;64007;50.632;13.700;2023-03-23T03:48:55;97211.66;;;8.90;100.00
75425;BME280;64007;50.632;13.700;2023-03-23T03:51:26;97219.16;;;8.85;100.00
75425;BME280;64007;50.632;13.700;2023-03-23T03:53:52;97214.13;;;8.82;100.00
75425;BME280;64007;50.632;13.700;2023-03-23T03:56:18;97224.75;;;8.82;100.00
75425;BME280;64007;50.632;13.700;2023-03-23T03:58:45;97219.44;;;8.82;100.00
75425;BME280;64007;50.632;13.700;2023-03-23T04:01:14;97221.25;;;8.81;100.00
75425;BME280;64007;50.632;13.700;2023-03-23T04:03:41;97219.44;;;8.82;100.00
75425;BME280;64007;50.632;13.700;2023-03-23T04:06:09;97220.41;;;8.81;100.00
75425;BME280;64007;50.632;13.700;2023-03-23T04:08:35;97224.47;;;8.85;100.00
75425;BME280;64007;50.632;13.700;2023-03-23T04:11:03;97224.47;;;8.85;100.00
75425;BME280;64007;50.632;13.700;2023-03-23T04:13:30;97223.94;;;8.91;100.00
75425;BME280;64007;50.632;13.700;2023-03-23T04:15:56;97220.66;;;9.08;100.00
75425;BME280;64007;50.632;13.700;2023-03-23T04:18:22;97218.09;;;8.97;100.00
75425;BME280;64007;50.632;13.700;2023-03-23T04:20:49;97208.72;;;9.23;100.00
75425;BME280;64007;50.632;13.700;2023-03-23T04:23:16;97214.53;;;9.17;100.00
75425;BME280;64007;50.632;13.700;2023-03-23T04:25:47;97212.56;;;9.09;100.00
75425;BME280;64007;50.632;13.700;2023-03-23T04:28:14;97206.69;;;9.06;100.00
75425;BME280;64007;50.632;13.700;2023-03-23T04:30:42;97199.69;;;9.05;100.00
75425;BME280;64007;50.632;13.700;2023-03-23T04:33:09;97202.34;;;9.05;100.00
75425;BME280;64007;50.632;13.700;2023-03-23T04:35:41;97200.53;;;9.05;100.00
75425;BME280;64007;50.632;13.700;2023-03-23T04:38:07;97204.72;;;9.08;100.00
75425;BME280;64007;50.632;13.700;2023-03-23T04:40:39;97209.75;;;9.11;100.00
75425;BME280;64007;50.632;13.700;2023-03-23T04:43:05;97204.72;;;9.08;100.00
75425;BME280;64007;50.632;13.700;2023-03-23T04:45:33;97200.41;;;9.07;100.00
75425;BME280;64007;50.632;13.700;2023-03-23T04:47:59;97202.91;;;9.08;100.00
75425;BME280;64007;50.632;13.700;2023-03-23T04:50:30;97208.94;;;9.10;100.00
75425;BME280;64007;50.632;13.700;2023-03-23T04:52:59;97210.59;;;9.11;100.00
75425;BME280;64007;50.632;13.700;2023-03-23T04:55:34;97197.22;;;9.13;100.00
75425;BME280;64007;50.632;13.700;2023-03-23T04:58:04;97201.28;;;9.17;100.00
75425;BME280;64007;50.632;13.700;2023-03-23T05:00:32;97212.56;;;9.19;100.00
75425;BME280;64007;50.632;13.700;2023-03-23T05:02:58;97210.06;;;9.18;100.00
75425;BME280;64007;50.632;13.700;2023-03-23T05:05:24;97217.03;;;9.19;100.00
75425;BME280;64007;50.632;13.700;2023-03-23T05:07:51;97219.56;;;9.20;100.00
75425;BME280;64007;50.632;13.700;2023-03-23T05:10:17;97212.09;;;9.45;100.00
75425;BME280;64007;50.632;13.700;2023-03-23T05:12:43;97216.56;;;9.34;100.00
75425;BME280;64007;50.632;13.700;2023-03-23T05:15:10;97214.03;;;9.33;100.00
75425;BME280;64007;50.632;13.700;2023-03-23T05:17:36;97211.78;;;9.28;100.00
75425;BME280;64007;50.632;13.700;2023-03-23T05:20:04;97211.78;;;9.28;100.00
75425;BME280;64007;50.632;13.700;2023-03-23T05:22:33;97211.78;;;9.28;100.00
75425;BME280;64007;50.632;13.700;2023-03-23T05:24:59;97212.50;;;9.30;100.00
75425;BME280;64007;50.632;13.700;2023-03-23T05:27:28;97205.94;;;9.34;100.00
75425;BME280;64007;50.632;13.700;2023-03-23T05:29:57;97211.94;;;9.36;100.00
75425;BME280;64007;50.632;13.700;2023-03-23T05:32:24;97213.50;;;9.39;100.00
75425;BME280;64007;50.632;13.700;2023-03-23T05:34:55;97218.66;;;9.40;100.00
75425;BME280;64007;50.632;13.700;2023-03-23T05:37:22;97217.41;;;9.45;100.00
75425;BME280;64007;50.632;13.700;2023-03-23T05:39:48;97217.13;;;9.48;100.00
75425;BME280;64007;50.632;13.700;2023-03-23T05:42:13;97220.47;;;9.50;100.00
75425;BME280;64007;50.632;13.700;2023-03-23T05:44:39;97220.22;;;9.53;100.00
75425;BME280;64007;50.632;13.700;2023-03-23T05:47:05;97214.63;;;9.56;100.00
75425;BME280;64007;50.632;13.700;2023-03-23T05:49:31;97213.25;;;9.61;100.00
75425;BME280;64007;50.632;13.700;2023-03-23T05:51:56;97219.13;;;9.65;100.00
75425;BME280;64007;50.632;13.700;2023-03-23T05:54:22;97218.59;;;9.71;100.00
75425;BME280;64007;50.632;13.700;2023-03-23T05:56:48;97213.00;;;9.74;100.00
75425;BME280;64007;50.632;13.700;2023-03-23T05:59:14;97213.41;;;9.79;100.00
75425;BME280;64007;50.632;13.700;2023-03-23T06:01:40;97211.88;;;9.86;100.00
75425;BME280;64007;50.632;13.700;2023-03-23T06:04:06;97209.63;;;9.91;100.00
75425;BME280;64007;50.632;13.700;2023-03-23T06:06:31;97221.66;;;9.95;100.00
75425;BME280;64007;50.632;13.700;2023-03-23T06:08:58;97223.19;;;9.98;100.00
75425;BME280;64007;50.632;13.700;2023-03-23T06:11:25;97211.44;;;10.00;100.00
75425;BME280;64007;50.632;13.700;2023-03-23T06:13:52;97214.09;;;10.00;100.00
75425;BME280;64007;50.632;13.700;2023-03-23T06:16:18;97211.44;;;10.00;100.00
75425;BME280;64007;50.632;13.700;2023-03-23T06:18:44;97212.44;;;9.99;100.00
75425;BME280;64007;50.632;13.700;2023-03-23T06:21:10;97217.72;;;9.99;100.00
75425;BME280;64007;50.632;13.700;2023-03-23T06:23:37;97219.31;;;10.02;100.00
75425;BME280;64007;50.632;13.700;2023-03-23T06:26:07;97219.16;;;10.03;100.00
75425;BME280;64007;50.632;13.700;2023-03-23T06:28:34;97209.09;;;10.07;100.00
75425;BME280;64007;50.632;13.700;2023-03-23T06:31:04;97203.47;;;10.20;100.00
75425;BME280;64007;50.632;13.700;2023-03-23T06:33:33;97213.00;;;10.32;97.36
75425;BME280;64007;50.632;13.700;2023-03-23T06:35:59;97206.28;;;10.47;92.77
75425;BME280;64007;50.632;13.700;2023-03-23T06:38:25;97203.16;;;10.61;93.98
75425;BME280;64007;50.632;13.700;2023-03-23T06:40:55;97207.31;;;10.74;92.19
75425;BME280;64007;50.632;13.700;2023-03-23T06:43:22;97211.50;;;10.86;87.56
75425;BME280;64007;50.632;13.700;2023-03-23T06:45:49;97204.31;;;10.96;78.28
75425;BME280;64007;50.632;13.700;2023-03-23T06:48:14;97215.53;;;11.17;75.52
75425;BME280;64007;50.632;13.700;2023-03-23T06:50:44;97220.31;;;11.23;76.54
75425;BME280;64007;50.632;13.700;2023-03-23T06:53:11;97214.38;;;11.29;76.21
75425;BME280;64007;50.632;13.700;2023-03-23T06:55:37;97222.16;;;11.41;77.86
75425;BME280;64007;50.632;13.700;2023-03-23T06:58:05;97219.78;;;11.65;82.17
75425;BME280;64007;50.632;13.700;2023-03-23T07:00:32;97217.22;;;11.73;81.91
75425;BME280;64007;50.632;13.700;2023-03-23T07:02:58;97224.81;;;11.68;80.53
75425;BME280;64007;50.632;13.700;2023-03-23T07:05:24;97224.97;;;11.67;82.71
75425;BME280;64007;50.632;13.700;2023-03-23T07:07:50;97222.31;;;11.67;85.76
75425;BME280;64007;50.632;13.700;2023-03-23T07:10:16;97233.72;;;11.77;87.03
75425;BME280;64007;50.632;13.700;2023-03-23T07:12:42;97233.38;;;11.89;83.43
75425;BME280;64007;50.632;13.700;2023-03-23T07:15:09;97234.91;;;12.10;77.23
75425;BME280;64007;50.632;13.700;2023-03-23T07:17:37;97233.03;;;12.02;76.24
75425;BME280;64007;50.632;13.700;2023-03-23T07:20:04;97234.28;;;11.80;76.69
75425;BME280;64007;50.632;13.700;2023-03-23T07:22:31;97241.59;;;11.78;73.86
75425;BME280;64007;50.632;13.700;2023-03-23T07:24:56;97238.22;;;11.76;74.79
75425;BME280;64007;50.632;13.700;2023-03-23T07:27:23;97246.91;;;11.78;76.72
75425;BME280;64007;50.632;13.700;2023-03-23T07:29:49;97240.06;;;11.93;74.07
75425;BME280;64007;50.632;13.700;2023-03-23T07:32:15;97242.53;;;12.22;74.01
75425;BME280;64007;50.632;13.700;2023-03-23T07:34:41;97238.66;;;12.61;71.73
75425;BME280;64007;50.632;13.700;2023-03-23T07:37:07;97236.94;;;13.03;71.77
75425;BME280;64007;50.632;13.700;2023-03-23T07:39:33;97226.66;;;13.16;69.29
75425;BME280;64007;50.632;13.700;2023-03-23T07:41:59;97240.78;;;13.27;66.35
75425;BME280;64007;50.632;13.700;2023-03-23T07:44:25;97230.94;;;13.27;65.28
75425;BME280;64007;50.632;13.700;2023-03-23T07:46:54;97240.88;;;13.17;67.24
75425;BME280;64007;50.632;13.700;2023-03-23T07:49:20;97233.31;;;13.12;66.81
75425;BME280;64007;50.632;13.700;2023-03-23T07:51:46;97229.66;;;13.13;67.38
75425;BME280;64007;50.632;13.700;2023-03-23T07:54:12;97229.28;;;13.08;68.59
75425;BME280;64007;50.632;13.700;2023-03-23T07:56:39;97229.94;;;13.02;69.21
75425;BME280;64007;50.632;13.700;2023-03-23T07:59:06;97231.31;;;13.14;67.54
75425;BME280;64007;50.632;13.700;2023-03-23T08:01:33;97246.97;;;13.27;68.26
75425;BME280;64007;50.632;13.700;2023-03-23T08:03:59;97241.16;;;13.40;67.85
75425;BME280;64007;50.632;13.700;2023-03-23T08:06:26;97242.19;;;13.47;68.92
75425;BME280;64007;50.632;13.700;2023-03-23T08:08:52;97239.22;;;13.58;67.43
75425;BME280;64007;50.632;13.700;2023-03-23T08:11:19;97243.63;;;13.67;64.78
75425;BME280;64007;50.632;13.700;2023-03-23T08:13:46;97251.97;;;13.72;64.13
75425;BME280;64007;50.632;13.700;2023-03-23T08:16:11;97249.47;;;13.71;63.28
75425;BME280;64007;50.632;13.700;2023-03-23T08:18:38;97253.31;;;13.76;64.35
75425;BME280;64007;50.632;13.700;2023-03-23T08:21:06;97249.66;;;13.77;65.26
75425;BME280;64007;50.632;13.700;2023-03-23T08:23:35;97246.34;;;13.92;64.58
75425;BME280;64007;50.632;13.700;2023-03-23T08:26:04;97244.69;;;13.99;65.51
75425;BME280;64007;50.632;13.700;2023-03-23T08:28:32;97243.72;;;14.16;64.67
75425;BME280;64007;50.632;13.700;2023-03-23T08:30:58;97251.13;;;14.47;64.34
75425;BME280;64007;50.632;13.700;2023-03-23T08:33:24;97252.16;;;14.46;65.67
75425;BME280;64007;50.632;13.700;2023-03-23T08:36:01;97246.44;;;14.57;63.38
75425;BME280;64007;50.632;13.700;2023-03-23T08:38:27;97245.59;;;14.72;64.37
75425;BME280;64007;50.632;13.700;2023-03-23T08:41:04;97240.41;;;14.79;62.06
75425;BME280;64007;50.632;13.700;2023-03-23T08:43:31;97237.38;;;14.98;58.81
75425;BME280;64007;50.632;13.700;2023-03-23T08:45:58;97234.19;;;14.95;57.62
75425;BME280;64007;50.632;13.700;2023-03-23T08:48:24;97231.69;;;14.93;58.71
75425;BME280;64007;50.632;13.700;2023-03-23T08:50:50;97234.34;;;15.01;55.48
75425;BME280;64007;50.632;13.700;2023-03-23T08:53:18;97227.28;;;15.25;56.47
75425;BME280;64007;50.632;13.700;2023-03-23T08:55:47;97229.25;;;15.31;56.73
75425;BME280;64007;50.632;13.700;2023-03-23T08:58:14;97222.56;;;15.27;56.75
75425;BME280;64007;50.632;13.700;2023-03-23T09:00:40;97239.66;;;15.18;56.38
75425;BME280;64007;50.632;13.700;2023-03-23T09:03:06;97237.31;;;15.23;56.34
75425;BME280;64007;50.632;13.700;2023-03-23T09:05:32;97233.63;;;15.24;54.46
75425;BME280;64007;50.632;13.700;2023-03-23T09:07:58;97238.31;;;15.14;55.53
75425;BME280;64007;50.632;13.700;2023-03-23T09:10:26;97235.34;;;15.09;56.09
75425;BME280;64007;50.632;13.700;2023-03-23T09:12:52;97230.69;;;14.94;56.59
75425;BME280;64007;50.632;13.700;2023-03-23T09:15:19;97234.38;;;14.85;56.53
75425;BME280;64007;50.632;13.700;2023-03-23T09:17:47;97235.38;;;14.76;56.01
75425;BME280;64007;50.632;13.700;2023-03-23T09:20:17;97236.72;;;14.72;56.01
75425;BME280;64007;50.632;13.700;2023-03-23T09:22:48;97237.91;;;14.86;55.32
75425;BME280;64007;50.632;13.700;2023-03-23T09:25:16;97241.06;;;14.89;57.24
75425;BME280;64007;50.632;13.700;2023-03-23T09:27:44;97234.69;;;14.98;55.62
75425;BME280;64007;50.632;13.700;2023-03-23T09:30:13;97230.47;;;15.12;56.89
75425;BME280;64007;50.632;13.700;2023-03-23T09:32:40;97232.28;;;15.28;56.53
75425;BME280;64007;50.632;13.700;2023-03-23T09:35:09;97236.56;;;15.45;56.08
75425;BME280;64007;50.632;13.700;2023-03-23T09:37:36;97234.84;;;15.60;56.65
75425;BME280;64007;50.632;13.700;2023-03-23T09:40:05;97233.34;;;15.66;57.22
75425;BME280;64007;50.632;13.700;2023-03-23T09:50:31;97241.41;;;15.50;56.88
75425;BME280;64007;50.632;13.700;2023-03-23T09:53:10;97236.88;;;15.50;55.25
75425;BME280;64007;50.632;13.700;2023-03-23T09:55:38;97227.78;;;15.68;56.38
75425;BME280;64007;50.632;13.700;2023-03-23T09:58:18;97222.09;;;16.02;55.15
75425;BME280;64007;50.632;13.700;2023-03-23T10:00:52;97226.25;;;16.04;54.28
75425;BME280;64007;50.632;13.700;2023-03-23T10:03:26;97227.09;;;16.27;55.33
75425;BME280;64007;50.632;13.700;2023-03-23T10:05:54;97223.94;;;16.47;53.45
75425;BME280;64007;50.632;13.700;2023-03-23T10:08:23;97224.78;;;16.62;51.92
75425;BME280;64007;50.632;13.700;2023-03-23T10:16:23;97224.78;;;16.62;52.93
75425;BME280;64007;50.632;13.700;2023-03-23T10:18:53;97217.28;;;16.57;51.89
75425;BME280;64007;50.632;13.700;2023-03-23T10:21:23;97224.56;;;16.26;52.27
75425;BME280;64007;50.632;13.700;2023-03-23T10:26:48;97229.94;;;16.03;53.12
75425;BME280;64007;50.632;13.700;2023-03-23T10:29:52;97233.50;;;15.95;54.02
75425;BME280;64007;50.632;13.700;2023-03-23T10:32:22;97230.03;;;15.87;54.30
75425;BME280;64007;50.632;13.700;2023-03-23T10:34:56;97222.03;;;15.79;54.31
75425;BME280;64007;50.632;13.700;2023-03-23T10:37:28;97215.59;;;15.88;54.77
75425;BME280;64007;50.632;13.700;2023-03-23T10:40:01;97228.84;;;15.89;54.57
75425;BME280;64007;50.632;13.700;2023-03-23T10:42:31;97225.72;;;15.78;54.64
75425;BME280;64007;50.632;13.700;2023-03-23T10:47:43;97227.34;;;15.87;54.31
75425;BME280;64007;50.632;13.700;2023-03-23T10:50:14;97219.59;;;15.92;55.27
75425;BME280;64007;50.632;13.700;2023-03-23T10:52:44;97231.63;;;16.04;55.87
75425;BME280;64007;50.632;13.700;2023-03-23T10:55:16;97230.44;;;15.98;54.96
75425;BME280;64007;50.632;13.700;2023-03-23T10:57:47;97219.91;;;15.97;55.47
75425;BME280;64007;50.632;13.700;2023-03-23T11:00:24;97228.53;;;16.15;55.41
75425;BME280;64007;50.632;13.700;2023-03-23T11:05:32;97233.41;;;16.35;54.40
75425;BME280;64007;50.632;13.700;2023-03-23T11:08:00;97232.44;;;16.27;55.05
75425;BME280;64007;50.632;13.700;2023-03-23T11:10:36;97236.56;;;16.15;55.28
75425;BME280;64007;50.632;13.700;2023-03-23T11:13:02;97227.94;;;16.05;55.36
75425;BME280;64007;50.632;13.700;2023-03-23T11:15:40;97225.47;;;16.18;55.05
75425;BME280;64007;50.632;13.700;2023-03-23T11:18:10;97239.19;;;16.23;55.33
75425;BME280;64007;50.632;13.700;2023-03-23T11:20:41;97236.88;;;16.20;55.13
75425;BME280;64007;50.632;13.700;2023-03-23T11:26:18;97236.72;;;16.37;54.95
75425;BME280;64007;50.632;13.700;2023-03-23T11:28:51;97234.13;;;16.28;54.24
75425;BME280;64007;50.632;13.700;2023-03-23T11:31:21;97237.94;;;16.57;54.52
75425;BME280;64007;50.632;13.700;2023-03-23T11:34:11;97233.47;;;16.49;54.44
75425;BME280;64007;50.632;13.700;2023-03-23T11:36:47;97247.09;;;16.40;54.42
75425;BME280;64007;50.632;13.700;2023-03-23T11:42:22;97247.59;;;16.20;53.73
75425;BME280;64007;50.632;13.700;2023-03-23T11:44:52;97243.00;;;16.06;55.56
75425;BME280;64007;50.632;13.700;2023-03-23T11:47:27;97253.25;;;16.03;54.75
75425;BME280;64007;50.632;13.700;2023-03-23T11:50:01;97256.31;;;15.91;55.28
75425;BME280;64007;50.632;13.700;2023-03-23T11:55:28;97250.16;;;15.83;54.31
75425;BME280;64007;50.632;13.700;2023-03-23T11:58:00;97252.63;;;15.61;55.36
75425;BME280;64007;50.632;13.700;2023-03-23T12:00:27;97254.59;;;15.68;54.76
75425;BME280;64007;50.632;13.700;2023-03-23T12:03:06;97248.25;;;15.60;55.94
75425;BME280;64007;50.632;13.700;2023-03-23T12:11:11;97244.91;;;15.50;56.55
75425;BME280;64007;50.632;13.700;2023-03-23T12:21:56;97242.38;;;15.57;56.37
75425;BME280;64007;50.632;13.700;2023-03-23T12:32:29;97235.38;;;15.48;57.18
75425;BME280;64007;50.632;13.700;2023-03-23T12:49:15;97239.84;;;15.55;57.99
75425;BME280;64007;50.632;13.700;2023-03-23T12:51:59;97229.53;;;15.44;58.46
75425;BME280;64007;50.632;13.700;2023-03-23T12:57:19;97222.16;;;15.46;60.10
75425;BME280;64007;50.632;13.700;2023-03-23T12:59:55;97234.56;;;15.39;59.76
75425;BME280;64007;50.632;13.700;2023-03-23T13:02:32;97233.91;;;15.37;59.31
75425;BME280;64007;50.632;13.700;2023-03-23T13:05:04;97236.06;;;15.42;59.26
75425;BME280;64007;50.632;13.700;2023-03-23T13:07:44;97248.81;;;15.40;58.50
75425;BME280;64007;50.632;13.700;2023-03-23T13:10:19;97242.47;;;15.32;59.19
75425;BME280;64007;50.632;13.700;2023-03-23T13:12:47;97252.69;;;15.21;59.76
75425;BME280;64007;50.632;13.700;2023-03-23T13:18:02;97250.88;;;15.21;59.98
75425;BME280;64007;50.632;13.700;2023-03-23T13:23:08;97250.31;;;15.42;58.57
75425;BME280;64007;50.632;13.700;2023-03-23T13:28:16;97253.31;;;15.39;59.45
75425;BME280;64007;50.632;13.700;2023-03-23T13:30:53;97240.88;;;15.62;59.12
75425;BME280;64007;50.632;13.700;2023-03-23T13:33:20;97237.00;;;15.57;58.98
75425;BME280;64007;50.632;13.700;2023-03-23T13:35:48;97228.50;;;15.61;57.95
75425;BME280;64007;50.632;13.700;2023-03-23T13:38:24;97239.19;;;15.70;57.48
75425;BME280;64007;50.632;13.700;2023-03-23T13:40:52;97236.84;;;15.58;57.78
75425;BME280;64007;50.632;13.700;2023-03-23T13:43:45;97230.38;;;15.45;59.13
75425;BME280;64007;50.632;13.700;2023-03-23T13:51:51;97221.31;;;15.46;59.26
75425;BME280;64007;50.632;13.700;2023-03-23T13:54:40;97216.41;;;15.57;59.36
75425;BME280;64007;50.632;13.700;2023-03-23T14:02:51;97209.75;;;15.61;58.25
75425;BME280;64007;50.632;13.700;2023-03-23T14:10:44;97220.56;;;15.21;58.84
75425;BME280;64007;50.632;13.700;2023-03-23T14:13:21;97213.22;;;15.15;60.07
75425;BME280;64007;50.632;13.700;2023-03-23T14:16:00;97205.03;;;15.08;60.90
75425;BME280;64007;50.632;13.700;2023-03-23T14:18:39;97205.56;;;15.03;60.96
75425;BME280;64007;50.632;13.700;2023-03-23T14:21:14;97210.91;;;15.03;60.88
75425;BME280;64007;50.632;13.700;2023-03-23T14:23:40;97201.53;;;15.08;61.16
75425;BME280;64007;50.632;13.700;2023-03-23T14:26:11;97197.22;;;14.98;61.64
75425;BME280;64007;50.632;13.700;2023-03-23T14:28:43;97191.03;;;14.98;61.70
75425;BME280;64007;50.632;13.700;2023-03-23T14:31:35;97196.84;;;15.10;61.71
75425;BME280;64007;50.632;13.700;2023-03-23T15:29:52;97227.41;;;14.52;61.86
75425;BME280;64007;50.632;13.700;2023-03-23T15:32:30;97229.91;;;14.53;62.14
75425;BME280;64007;50.632;13.700;2023-03-23T15:34:56;97233.41;;;14.54;62.19
75425;BME280;64007;50.632;13.700;2023-03-23T15:37:27;97222.38;;;14.49;62.92
75425;BME280;64007;50.632;13.700;2023-03-23T15:39:54;97223.38;;;14.48;62.41
75425;BME280;64007;50.632;13.700;2023-03-23T15:42:23;97228.06;;;14.46;62.55
75425;BME280;64007;50.632;13.700;2023-03-23T15:45:27;97239.59;;;14.62;61.69
75425;BME280;64007;50.632;13.700;2023-03-23T15:47:53;97234.06;;;14.56;62.39
75425;BME280;64007;50.632;13.700;2023-03-23T15:52:51;97249.47;;;14.46;62.78
75425;BME280;64007;50.632;13.700;2023-03-23T15:57:47;97250.75;;;14.33;63.46
75425;BME280;64007;50.632;13.700;2023-03-23T16:00:14;97248.75;;;14.27;63.45